Time;durP1;ratioP1;P1;durP2;ratioP2;P2;SDS_P1;SDS_P2;PMS_P1;PMS_P2;Temp;Humidity;BMP_temperature;BMP_pressure;BME280_temperature;BME280_humidity;BME280_pressure;Samples;Min_cycle;Max_cycle;Signal;HPM_P1;HPM_P2
2021/12/15 00:01:37;;;;;;;23.45;8.82;;;5.80;98.90;;;;;;4983353;28;20019;-76
2021/12/15 00:04:04;;;;;;;21.13;8.65;;;5.70;99.00;;;;;;4951607;28;20061;-76
2021/12/15 00:06:30;;;;;;;22.83;8.75;;;5.70;98.90;;;;;;4966871;28;20321;-77
2021/12/15 00:08:58;;;;;;;27.25;9.27;;;5.70;99.10;;;;;;4968414;28;20034;-75
2021/12/15 00:11:32;;;;;;;22.95;9.02;;;5.80;98.80;;;;;;4952235;28;20050;-75
2021/12/15 00:13:58;;;;;;;21.95;8.73;;;5.80;98.80;;;;;;4968095;28;20027;-76
2021/12/15 00:16:24;;;;;;;22.85;8.00;;;5.70;98.80;;;;;;4966897;28;20027;-77
2021/12/15 00:18:50;;;;;;;24.20;9.57;;;5.70;99.00;;;;;;4983423;28;20130;-77
2021/12/15 00:21:18;;;;;;;23.63;9.60;;;5.60;99.20;;;;;;4983469;28;20019;-78
2021/12/15 00:23:44;;;;;;;22.30;8.38;;;5.60;99.40;;;;;;4951814;28;20022;-77
2021/12/15 00:26:10;;;;;;;27.13;9.43;;;5.60;99.20;;;;;;4969216;28;20210;-77
2021/12/15 00:28:36;;;;;;;16.00;8.03;;;5.60;99.20;;;;;;4970791;28;20030;-79
2021/12/15 00:31:02;;;;;;;22.38;8.38;;;5.70;99.00;;;;;;4986643;28;20061;-77
2021/12/15 00:33:28;;;;;;;22.60;8.20;;;5.70;98.90;;;;;;4954101;28;20026;-77
2021/12/15 00:35:55;;;;;;;22.88;8.20;;;5.60;99.20;;;;;;4986024;28;20077;-77
2021/12/15 00:38:22;;;;;;;22.25;7.93;;;5.70;99.00;;;;;;4967857;28;20065;-77
2021/12/15 00:40:48;;;;;;;19.42;8.20;;;5.70;98.80;;;;;;4983192;28;20105;-78
2021/12/15 00:43:14;;;;;;;19.37;7.80;;;5.70;99.00;;;;;;4999224;28;20026;-77
2021/12/15 00:45:40;;;;;;;25.23;8.30;;;5.70;99.00;;;;;;5003088;28;20270;-77
2021/12/15 00:48:06;;;;;;;27.70;9.93;;;5.70;98.80;;;;;;4974502;28;20225;-77
2021/12/15 00:50:33;;;;;;;21.83;8.47;;;5.70;98.80;;;;;;4995760;28;20041;-77
2021/12/15 00:53:00;;;;;;;24.05;7.97;;;5.60;98.80;;;;;;4997384;28;20318;-77
2021/12/15 00:55:26;;;;;;;21.90;8.00;;;5.60;98.90;;;;;;4958873;28;20070;-77
2021/12/15 00:57:52;;;;;;;24.77;8.38;;;5.60;98.90;;;;;;4998915;28;20026;-77
2021/12/15 01:00:26;;;;;;;26.50;7.87;;;5.60;99.00;;;;;;4982750;28;20090;-76
2021/12/15 01:02:52;;;;;;;18.90;7.75;;;5.60;98.90;;;;;;4998434;28;20081;-76
2021/12/15 01:05:21;;;;;;;18.25;6.72;;;5.70;98.90;;;;;;4998267;28;21608;-76
2021/12/15 01:07:47;;;;;;;24.02;7.22;;;5.70;98.90;;;;;;4998330;28;20330;-76
2021/12/15 01:10:19;;;;;;;22.52;7.57;;;5.60;99.10;;;;;;4966617;28;20027;-76
2021/12/15 01:21:14;;;;;;;24.10;8.85;;;5.50;99.60;;;;;;4969199;28;20026;-76
2021/12/15 01:23:40;;;;;;;21.97;8.20;;;5.50;99.60;;;;;;4966542;28;20046;-76
2021/12/15 01:26:10;;;;;;;28.80;10.03;;;5.50;99.60;;;;;;4982041;28;20038;-76
2021/12/15 01:28:35;;;;;;;23.15;8.85;;;5.50;99.60;;;;;;4950377;28;20322;-76
2021/12/15 01:31:02;;;;;;;24.07;8.63;;;5.60;99.40;;;;;;4982398;28;20095;-77
2021/12/15 01:33:28;;;;;;;28.90;8.88;;;5.60;99.30;;;;;;4982541;28;20050;-77
2021/12/15 01:35:56;;;;;;;28.00;9.90;;;5.70;99.20;;;;;;4965918;28;20031;-76
2021/12/15 01:38:23;;;;;;;28.25;9.02;;;5.60;99.20;;;;;;4982439;28;20373;-77
2021/12/15 01:40:49;;;;;;;30.75;10.30;;;5.60;99.10;;;;;;4966305;28;20225;-77
2021/12/15 01:43:25;;;;;;;30.77;9.13;;;5.60;99.20;;;;;;4983611;28;20090;-76
2021/12/15 01:48:41;;;;;;;26.58;9.27;;;5.70;99.10;;;;;;4982918;28;20294;-77
2021/12/15 01:51:10;;;;;;;26.65;9.77;;;5.70;98.90;;;;;;4981061;28;20360;-77
2021/12/15 01:53:37;;;;;;;22.52;8.68;;;5.60;99.10;;;;;;4966484;28;20035;-77
2021/12/15 01:56:04;;;;;;;30.35;9.85;;;5.70;99.00;;;;;;4950023;28;20057;-77
2021/12/15 01:58:30;;;;;;;26.80;9.73;;;5.70;99.00;;;;;;4982180;28;20023;-77
2021/12/15 02:00:59;;;;;;;26.53;9.40;;;5.70;98.90;;;;;;4998330;28;20253;-77
2021/12/15 02:03:25;;;;;;;28.83;9.55;;;5.60;99.20;;;;;;4966431;28;20027;-77
2021/12/15 02:05:51;;;;;;;29.03;11.37;;;5.60;99.50;;;;;;4981799;28;20030;-77
2021/12/15 02:08:17;;;;;;;31.38;10.60;;;5.60;99.30;;;;;;4968506;28;20030;-77
2021/12/15 02:10:43;;;;;;;28.95;10.02;;;5.60;99.20;;;;;;4985590;28;20023;-77
2021/12/15 02:13:13;;;;;;;28.20;9.35;;;5.70;99.30;;;;;;4969600;28;20057;-77
2021/12/15 02:15:51;;;;;;;26.13;10.02;;;5.60;99.50;;;;;;4986183;28;20027;-77
2021/12/15 02:18:21;;;;;;;31.83;11.32;;;5.60;99.60;;;;;;4985576;28;20026;-76
2021/12/15 02:20:51;;;;;;;35.90;11.80;;;5.60;99.70;;;;;;4969550;28;20015;-76
2021/12/15 02:23:20;;;;;;;28.90;9.20;;;5.60;99.50;;;;;;4985178;28;20038;-76
2021/12/15 02:25:46;;;;;;;33.58;11.23;;;5.60;99.40;;;;;;4953405;28;20030;-76
2021/12/15 02:28:12;;;;;;;41.53;11.37;;;5.70;99.30;;;;;;4985296;28;20072;-76
2021/12/15 02:30:49;;;;;;;34.30;11.17;;;5.70;99.10;;;;;;4969245;28;20027;-76
2021/12/15 02:38:41;;;;;;;36.60;11.57;;;5.70;99.10;;;;;;4971861;28;20061;-76
2021/12/15 02:41:20;;;;;;;34.28;10.73;;;5.70;99.20;;;;;;4970154;28;20019;-77
2021/12/15 02:43:54;;;;;;;38.92;11.65;;;5.60;99.30;;;;;;4985221;28;20015;-77
2021/12/15 02:46:20;;;;;;;42.13;11.57;;;5.60;99.50;;;;;;4969341;28;20023;-76
2021/12/15 02:48:46;;;;;;;35.63;12.73;;;5.60;99.70;;;;;;4952926;28;20078;-76
2021/12/15 02:51:12;;;;;;;35.78;10.85;;;5.60;99.70;;;;;;4968663;28;20046;-76
2021/12/15 02:53:38;;;;;;;43.08;12.38;;;5.60;99.60;;;;;;4983998;28;20042;-77
2021/12/15 02:56:04;;;;;;;36.77;11.87;;;5.60;99.60;;;;;;4984679;28;20027;-77
2021/12/15 02:58:34;;;;;;;43.63;13.18;;;5.60;99.70;;;;;;4984896;28;20029;-77
2021/12/15 03:01:07;;;;;;;46.33;12.77;;;5.50;99.90;;;;;;4985131;28;20022;-77
2021/12/15 03:04:11;;;;;;;36.55;11.25;;;5.50;99.90;;;;;;4969650;28;20045;-77
2021/12/15 03:06:28;;;;;;;47.38;13.05;;;5.50;99.90;;;;;;4970921;28;20043;-77
2021/12/15 03:17:23;;;;;;;43.67;11.85;;;5.50;99.90;;;;;;4973693;28;20237;-76
2021/12/15 03:19:51;;;;;;;46.63;12.07;;;5.50;99.90;;;;;;4984615;28;20023;-77
2021/12/15 03:22:17;;;;;;;41.92;12.60;;;5.50;99.90;;;;;;4984321;28;20130;-77
2021/12/15 03:24:43;;;;;;;50.13;14.17;;;5.60;99.90;;;;;;4984947;28;20031;-76
2021/12/15 03:27:15;;;;;;;43.92;13.88;;;5.60;99.90;;;;;;4984138;28;20030;-76
2021/12/15 03:33:28;;;;;;;51.83;13.82;;;5.50;99.90;;;;;;4986690;28;20029;-76
2021/12/15 03:37:54;;;;;;;45.28;12.98;;;5.70;99.90;;;;;;4956076;28;20046;-76
2021/12/15 03:40:23;;;;;;;46.78;13.48;;;5.50;99.90;;;;;;4956707;28;20023;-76
2021/12/15 03:43:00;;;;;;;47.13;14.60;;;5.50;99.90;;;;;;4970135;28;20042;-76
2021/12/15 03:45:32;;;;;;;46.63;13.75;;;5.60;99.90;;;;;;4987347;28;20031;-77
2021/12/15 03:48:01;;;;;;;64.68;13.85;;;5.60;99.90;;;;;;4971736;28;20034;-76
2021/12/15 03:50:28;;;;;;;51.28;14.38;;;5.70;99.90;;;;;;4986730;28;20078;-76
2021/12/15 03:52:53;;;;;;;48.72;12.10;;;5.80;99.90;;;;;;4984303;28;20026;-75
2021/12/15 03:55:22;;;;;;;46.03;13.35;;;5.80;99.70;;;;;;4966941;28;20078;-75
2021/12/15 03:57:48;;;;;;;39.55;11.18;;;5.90;99.60;;;;;;5016303;28;20022;-77
2021/12/15 04:00:15;;;;;;;40.17;10.63;;;5.80;99.70;;;;;;4999722;28;20033;-77
2021/12/15 04:02:41;;;;;;;46.67;12.20;;;5.70;99.70;;;;;;4983892;28;20026;-77
2021/12/15 04:05:08;;;;;;;44.15;12.55;;;5.70;99.90;;;;;;4986142;28;20034;-77
2021/12/15 04:07:35;;;;;;;43.65;11.93;;;5.60;99.90;;;;;;5002798;28;20090;-77
2021/12/15 04:10:07;;;;;;;50.88;13.27;;;5.60;99.90;;;;;;5002747;28;20089;-77
2021/12/15 04:12:33;;;;;;;47.72;13.05;;;5.60;99.90;;;;;;5002601;28;20038;-77
2021/12/15 04:15:19;;;;;;;50.63;13.27;;;5.60;99.90;;;;;;5002209;28;20077;-77
2021/12/15 04:17:46;;;;;;;42.90;12.40;;;5.70;99.90;;;;;;5011137;28;20022;-76
2021/12/15 04:20:16;;;;;;;47.47;14.43;;;5.60;99.90;;;;;;4984463;28;20070;-76
2021/12/15 04:22:42;;;;;;;50.85;12.18;;;5.60;99.90;;;;;;5017497;28;20021;-77
2021/12/15 04:25:23;;;;;;;44.47;12.77;;;5.60;99.90;;;;;;5002872;28;20023;-76
2021/12/15 04:28:23;;;;;;;44.20;13.13;;;5.60;99.90;;;;;;4986665;28;20023;-76
2021/12/15 04:30:55;;;;;;;41.05;12.68;;;5.70;99.90;;;;;;4984482;28;20035;-76
2021/12/15 04:33:31;;;;;;;45.40;13.38;;;5.70;99.90;;;;;;4972652;28;20022;-76
2021/12/15 04:35:58;;;;;;;53.60;13.05;;;5.80;99.80;;;;;;4988139;28;20018;-75
2021/12/15 04:38:25;;;;;;;;;;;5.80;99.60;;;;;;4958194;28;20023;-75
2021/12/15 04:40:51;;;;;;;49.72;12.57;;;5.80;99.60;;;;;;5005642;28;19910;-76
2021/12/15 04:43:17;;;;;;;54.43;13.73;;;5.80;99.70;;;;;;4957141;28;20098;-76
2021/12/15 04:45:43;;;;;;;40.50;12.03;;;5.70;99.70;;;;;;4957810;28;20034;-75
2021/12/15 04:48:09;;;;;;;56.27;13.77;;;5.70;99.60;;;;;;4973919;28;20033;-76
2021/12/15 04:50:36;;;;;;;41.97;12.20;;;5.60;99.90;;;;;;4957255;28;20110;-76
2021/12/15 04:53:03;;;;;;;49.67;12.15;;;5.60;99.90;;;;;;4968808;28;20568;-77
2021/12/15 04:55:30;;;;;;;48.60;12.82;;;5.80;99.90;;;;;;4966260;28;20030;-77
2021/12/15 04:57:57;;;;;;;52.42;12.50;;;5.90;99.60;;;;;;4980447;28;20450;-77
2021/12/15 05:00:26;;;;;;;45.55;11.52;;;5.90;99.40;;;;;;4932858;29;20027;-78
2021/12/15 05:02:52;;;;;;;40.75;11.48;;;5.80;99.40;;;;;;4947306;29;20035;-76
2021/12/15 05:05:20;;;;;;;42.00;12.37;;;5.80;99.60;;;;;;4915201;28;20023;-77
2021/12/15 05:07:46;;;;;;;41.05;12.43;;;5.70;99.80;;;;;;4965953;28;20023;-76
2021/12/15 05:10:12;;;;;;;45.13;11.80;;;5.70;99.80;;;;;;4966395;28;20102;-76
2021/12/15 05:12:38;;;;;;;41.57;10.57;;;5.80;99.70;;;;;;4969591;28;20090;-75
2021/12/15 05:15:06;;;;;;;48.53;12.30;;;5.70;99.60;;;;;;4979829;28;20037;-72
2021/12/15 05:17:32;;;;;;;43.53;11.30;;;5.70;99.70;;;;;;4981726;28;20046;-72
2021/12/15 05:20:02;;;;;;;39.70;11.33;;;5.60;99.90;;;;;;4982889;28;20026;-67
2021/12/15 05:22:28;;;;;;;44.88;11.35;;;5.60;99.90;;;;;;4981847;28;20019;-66
2021/12/15 05:24:54;;;;;;;34.97;10.55;;;5.60;99.90;;;;;;4981283;28;20214;-67
2021/12/15 05:27:20;;;;;;;41.97;10.23;;;5.60;99.90;;;;;;4943351;28;1160323;-67
2021/12/15 05:29:47;;;;;;;34.10;11.05;;;5.50;99.90;;;;;;4983222;28;20026;-67
2021/12/15 05:32:17;;;;;;;;;;;5.60;99.90;;;;;;4983383;28;20025;-67
2021/12/15 05:34:43;;;;;;;42.85;12.80;;;5.60;99.90;;;;;;4983093;28;19910;-71
2021/12/15 05:37:08;;;;;;;43.23;12.00;;;5.60;99.90;;;;;;4982120;28;20381;-70
2021/12/15 05:39:35;;;;;;;39.40;11.45;;;5.50;99.90;;;;;;4982426;28;20022;-71
2021/12/15 05:42:01;;;;;;;42.17;11.07;;;5.60;99.90;;;;;;4983378;28;20022;-71
2021/12/15 05:44:27;;;;;;;43.00;10.63;;;5.60;99.90;;;;;;4969394;28;20056;-67
2021/12/15 05:46:56;;;;;;;39.25;11.13;;;5.60;99.90;;;;;;4976989;28;20035;-67
2021/12/15 05:49:22;;;;;;;36.85;10.88;;;5.60;99.90;;;;;;4967919;28;20034;-67
2021/12/15 05:51:48;;;;;;;38.03;11.23;;;5.50;99.90;;;;;;4970088;28;20027;-67
2021/12/15 05:54:14;;;;;;;39.58;10.80;;;5.50;99.90;;;;;;4987203;28;20027;-66
2021/12/15 05:56:40;;;;;;;42.42;10.82;;;5.60;99.90;;;;;;4987200;28;20019;-67
2021/12/15 05:59:06;;;;;;;38.33;11.27;;;5.60;99.90;;;;;;5001979;28;20035;-72
2021/12/15 06:01:32;;;;;;;48.60;12.65;;;5.70;99.90;;;;;;5001225;28;20030;-66
2021/12/15 06:04:00;;;;;;;48.10;13.57;;;5.70;99.80;;;;;;4968047;28;20034;-66
2021/12/15 06:06:27;;;;;;;45.10;11.77;;;5.70;99.70;;;;;;4967593;28;20034;-66
2021/12/15 06:08:53;;;;;;;43.78;10.80;;;5.70;99.70;;;;;;4982461;28;20045;-65
2021/12/15 06:11:19;;;;;;;48.75;13.13;;;5.70;99.60;;;;;;4967270;28;20277;-67
2021/12/15 06:13:48;;;;;;;41.90;11.40;;;5.70;99.60;;;;;;4967288;28;20035;-67
2021/12/15 06:16:15;;;;;;;41.17;12.25;;;5.70;99.60;;;;;;4966670;28;20026;-71
2021/12/15 06:18:41;;;;;;;39.97;12.18;;;5.60;99.80;;;;;;4967065;28;20086;-69
2021/12/15 06:21:08;;;;;;;43.27;11.80;;;5.60;99.90;;;;;;4967095;28;20023;-68
2021/12/15 06:23:33;;;;;;;43.05;11.20;;;5.60;99.90;;;;;;4981888;28;20023;-68
2021/12/15 06:26:02;;;;;;;41.88;12.18;;;5.70;99.90;;;;;;4981280;28;20042;-68
2021/12/15 06:28:28;;;;;;;37.97;12.68;;;5.80;99.70;;;;;;4981967;28;20034;-68
2021/12/15 06:30:55;;;;;;;35.00;10.73;;;5.70;99.80;;;;;;4975744;28;20114;-68
2021/12/15 06:33:22;;;;;;;41.13;10.90;;;5.80;99.60;;;;;;4969140;28;20229;-67
2021/12/15 06:35:57;;;;;;;50.25;12.55;;;5.80;99.50;;;;;;4984772;28;20035;-68
2021/12/15 06:38:25;;;;;;;43.88;10.77;;;5.80;99.50;;;;;;4985465;28;20329;-67
2021/12/15 06:40:51;;;;;;;43.38;11.70;;;5.70;99.70;;;;;;4983115;28;20039;-70
2021/12/15 06:43:17;;;;;;;47.60;11.87;;;5.70;99.90;;;;;;4968924;28;20027;-70
2021/12/15 06:45:58;;;;;;;47.05;11.75;;;5.70;99.70;;;;;;4966307;28;20034;-70
2021/12/15 06:59:21;;;;;;;40.50;11.95;;;5.70;99.90;;;;;;4979637;28;20030;-70
2021/12/15 07:01:52;;;;;;;36.60;10.70;;;5.80;99.70;;;;;;4975206;28;20022;-71
2021/12/15 07:04:20;;;;;;;50.00;11.70;;;5.80;99.70;;;;;;4985839;28;20027;-68
2021/12/15 07:06:47;;;;;;;45.58;13.15;;;5.70;99.60;;;;;;4986138;28;20031;-68
2021/12/15 07:09:13;;;;;;;38.97;11.32;;;5.70;99.80;;;;;;4985447;28;20023;-68
2021/12/15 07:11:39;;;;;;;38.53;12.20;;;5.80;99.70;;;;;;4986738;28;20091;-68
2021/12/15 07:14:05;;;;;;;42.33;11.00;;;5.80;99.50;;;;;;4986001;28;20061;-68
2021/12/15 07:16:33;;;;;;;44.33;12.48;;;5.70;99.60;;;;;;4985354;28;20019;-68
2021/12/15 07:21:35;;;;;;;46.92;12.93;;;5.80;99.80;;;;;;4969786;28;20027;-68
2021/12/15 07:24:01;;;;;;;40.03;11.57;;;5.80;99.60;;;;;;4984823;28;20031;-68
2021/12/15 07:26:26;;;;;;;40.37;11.33;;;5.70;99.80;;;;;;4985101;28;20045;-67
2021/12/15 07:28:52;;;;;;;38.55;11.45;;;5.80;99.90;;;;;;4985458;28;20030;-68
2021/12/15 07:31:18;;;;;;;44.35;12.98;;;5.90;99.70;;;;;;4984836;28;20314;-68
2021/12/15 07:33:44;;;;;;;39.37;13.40;;;5.80;99.60;;;;;;4986494;28;20038;-68
2021/12/15 07:36:10;;;;;;;52.55;13.15;;;5.90;99.90;;;;;;4985249;28;20225;-68
2021/12/15 07:38:41;;;;;;;56.35;15.40;;;5.80;99.70;;;;;;4964943;28;20023;-68
2021/12/15 07:41:22;;;;;;;39.75;10.93;;;5.80;99.90;;;;;;4981064;28;20039;-68
2021/12/15 07:43:49;;;;;;;44.22;11.85;;;5.90;99.80;;;;;;5002465;28;20058;-68
2021/12/15 07:46:14;;;;;;;48.15;12.27;;;5.90;99.80;;;;;;4987946;28;20322;-69
2021/12/15 07:48:40;;;;;;;48.55;14.73;;;5.90;99.70;;;;;;4988409;28;20073;-68
2021/12/15 07:51:08;;;;;;;45.72;12.18;;;5.90;99.80;;;;;;5004800;28;20102;-68
2021/12/15 07:53:34;;;;;;;46.50;13.55;;;5.80;99.90;;;;;;4975457;28;20030;-68
2021/12/15 07:56:00;;;;;;;49.47;12.00;;;5.80;99.90;;;;;;4973408;28;20070;-68
2021/12/15 07:58:26;;;;;;;57.20;15.30;;;5.90;99.90;;;;;;4966139;28;20019;-69
2021/12/15 08:00:52;;;;;;;46.00;14.13;;;6.00;99.60;;;;;;4985034;28;20030;-68
2021/12/15 08:03:18;;;;;;;51.37;15.50;;;6.10;99.50;;;;;;5000158;28;20022;-68
2021/12/15 08:05:46;;;;;;;41.85;15.25;;;6.10;99.40;;;;;;4967908;28;20023;-69
2021/12/15 08:08:12;;;;;;;49.33;12.98;;;6.10;99.30;;;;;;4976579;28;20103;-68
2021/12/15 08:10:38;;;;;;;47.03;13.67;;;6.00;99.60;;;;;;4966130;28;20334;-68
2021/12/15 08:13:04;;;;;;;45.70;13.73;;;6.00;99.60;;;;;;4980903;28;20026;-68
2021/12/15 08:15:30;;;;;;;44.72;13.90;;;6.00;99.70;;;;;;4983292;28;20025;-70
2021/12/15 08:17:56;;;;;;;44.60;12.98;;;6.00;99.80;;;;;;4968317;28;20031;-70
2021/12/15 08:20:25;;;;;;;36.33;11.97;;;6.10;99.50;;;;;;4965223;28;20086;-70
2021/12/15 08:22:51;;;;;;;38.03;11.80;;;6.20;99.10;;;;;;4965643;28;20065;-69
2021/12/15 08:25:17;;;;;;;40.37;12.37;;;6.20;98.70;;;;;;5016580;23;20050;-72
2021/12/15 08:27:43;;;;;;;45.30;14.90;;;6.30;98.50;;;;;;5045660;28;20228;-72
2021/12/15 08:30:12;;;;;;;38.65;12.23;;;6.30;98.30;;;;;;5043531;28;20067;-73
2021/12/15 08:32:39;;;;;;;37.75;12.15;;;6.30;98.10;;;;;;5045039;28;20235;-72
2021/12/15 08:35:06;;;;;;;37.40;11.13;;;6.30;98.30;;;;;;5044139;28;20028;-72
2021/12/15 08:37:32;;;;;;;45.08;12.15;;;6.40;98.40;;;;;;5052470;28;20043;-72
2021/12/15 08:39:57;;;;;;;36.95;12.27;;;6.40;98.40;;;;;;5024898;28;20328;-74
2021/12/15 08:42:24;;;;;;;46.07;14.00;;;6.40;98.60;;;;;;5042205;28;20021;-73
2021/12/15 08:44:49;;;;;;;45.20;14.75;;;6.40;98.50;;;;;;5041106;28;20029;-72
2021/12/15 08:47:15;;;;;;;39.78;12.52;;;6.50;98.30;;;;;;5041336;28;20094;-73
2021/12/15 08:49:41;;;;;;;38.73;12.87;;;6.50;98.10;;;;;;5041197;28;20053;-73
2021/12/15 08:52:07;;;;;;;44.42;13.18;;;6.60;97.90;;;;;;5024822;28;20029;-72
2021/12/15 08:54:33;;;;;;;39.38;12.50;;;6.60;97.80;;;;;;5024343;28;20112;-73
2021/12/15 08:56:59;;;;;;;39.92;11.63;;;6.60;97.80;;;;;;5040921;28;20048;-74
2021/12/15 08:59:24;;;;;;;47.90;14.75;;;6.50;98.10;;;;;;5041269;28;20122;-72
2021/12/15 09:01:51;;;;;;;38.80;12.68;;;6.60;98.30;;;;;;5042078;28;20017;-71
2021/12/15 09:04:17;;;;;;;42.17;13.13;;;6.60;98.00;;;;;;5023576;28;20110;-71
2021/12/15 09:06:43;;;;;;;41.45;14.32;;;6.60;98.00;;;;;;5042004;28;20224;-72
2021/12/15 09:09:11;;;;;;;44.85;14.40;;;6.80;97.60;;;;;;5041056;28;20041;-71
2021/12/15 09:11:37;;;;;;;38.20;12.65;;;6.70;97.60;;;;;;5024650;28;20051;-71
2021/12/15 09:14:03;;;;;;;36.47;13.30;;;6.70;97.50;;;;;;5040678;28;20033;-72
2021/12/15 09:16:31;;;;;;;38.40;12.53;;;6.70;97.40;;;;;;5040399;28;20096;-71
2021/12/15 09:18:58;;;;;;;40.10;12.60;;;6.80;97.30;;;;;;5012023;28;20268;-72
2021/12/15 09:21:25;;;;;;;34.03;11.63;;;6.80;97.20;;;;;;5044839;28;20022;-72
2021/12/15 09:23:52;;;;;;;35.97;12.73;;;6.90;97.10;;;;;;5028482;28;20029;-71
2021/12/15 09:26:20;;;;;;;40.08;13.00;;;6.80;97.20;;;;;;5044979;28;20048;-73
2021/12/15 09:28:47;;;;;;;37.95;12.98;;;6.80;97.50;;;;;;5045319;28;20316;-72
2021/12/15 09:31:14;;;;;;;40.20;14.15;;;6.90;97.60;;;;;;5045390;28;20025;-73
2021/12/15 09:33:41;;;;;;;42.10;14.15;;;7.00;97.40;;;;;;5027941;28;20179;-71
2021/12/15 09:36:08;;;;;;;36.08;13.27;;;7.10;96.90;;;;;;5012483;28;20020;-72
2021/12/15 09:38:33;;;;;;;43.72;15.60;;;7.10;96.70;;;;;;5044537;28;20014;-71
2021/12/15 09:41:01;;;;;;;44.58;14.55;;;7.20;96.30;;;;;;5012326;28;20025;-72
2021/12/15 09:43:28;;;;;;;38.25;13.25;;;7.10;96.60;;;;;;5020120;28;20021;-72
2021/12/15 09:46:03;;;;;;;41.88;13.80;;;7.10;96.60;;;;;;5036888;28;20315;-72
2021/12/15 10:18:10;;;;;;;41.60;13.88;;;7.50;95.40;;;;;;5031327;28;20085;-72
2021/12/15 10:20:39;;;;;;;42.47;15.32;;;7.60;95.70;;;;;;5029696;28;20023;-72
2021/12/15 10:23:13;;;;;;;39.25;15.40;;;7.70;94.90;;;;;;5028254;28;20076;-72
2021/12/15 10:25:48;;;;;;;43.13;16.48;;;7.80;94.50;;;;;;5043617;28;20025;-72
2021/12/15 10:28:18;;;;;;;34.65;13.50;;;7.80;94.70;;;;;;5025211;28;20355;-72
2021/12/15 10:30:52;;;;;;;35.67;13.35;;;7.70;94.90;;;;;;5024983;28;20037;-72
2021/12/15 10:33:23;;;;;;;34.58;13.07;;;7.70;95.00;;;;;;5008200;28;20045;-72
2021/12/15 10:36:05;;;;;;;33.88;13.43;;;7.80;94.90;;;;;;5024039;28;20077;-71
2021/12/15 10:38:41;;;;;;;40.50;14.68;;;8.00;94.90;;;;;;5030450;28;20021;-72
2021/12/15 10:41:25;;;;;;;38.30;13.95;;;8.00;94.60;;;;;;5028363;28;20021;-71
2021/12/15 10:44:00;;;;;;;35.45;13.57;;;8.00;94.40;;;;;;5033706;28;20320;-72
2021/12/15 10:46:32;;;;;;;41.47;15.63;;;8.10;94.60;;;;;;5025819;28;20029;-72
2021/12/15 10:49:15;;;;;;;39.03;15.30;;;8.00;94.60;;;;;;5033726;28;20075;-72
2021/12/15 10:51:49;;;;;;;42.45;16.38;;;8.00;94.40;;;;;;5059681;28;20064;-72
2021/12/15 10:54:16;;;;;;;42.30;15.40;;;8.00;94.70;;;;;;5043174;28;20084;-72
2021/12/15 10:57:29;;;;;;;43.45;15.35;;;8.10;94.20;;;;;;5043724;28;20028;-73
2021/12/15 10:59:55;;;;;;;39.22;15.10;;;8.00;94.60;;;;;;5041646;28;20140;-72
2021/12/15 11:02:39;;;;;;;37.90;15.48;;;8.00;94.90;;;;;;5037449;28;20021;-73
2021/12/15 11:05:20;;;;;;;40.78;15.25;;;8.00;94.70;;;;;;5029239;28;20025;-73
2021/12/15 11:07:55;;;;;;;36.58;15.70;;;7.90;94.70;;;;;;5042874;28;20021;-72
2021/12/15 11:10:35;;;;;;;32.92;13.15;;;7.90;94.50;;;;;;5027170;28;20047;-73
2021/12/15 11:13:02;;;;;;;36.97;14.50;;;7.90;94.80;;;;;;5044468;28;20048;-72
2021/12/15 11:15:41;;;;;;;37.60;15.40;;;8.00;94.60;;;;;;5044115;28;20021;-72
2021/12/15 11:18:28;;;;;;;38.28;14.18;;;8.20;94.30;;;;;;5043320;28;20024;-72
2021/12/15 11:21:01;;;;;;;37.20;15.30;;;8.20;93.60;;;;;;5029449;28;20062;-73
2021/12/15 11:23:28;;;;;;;34.50;14.75;;;8.00;94.20;;;;;;5026906;28;20025;-72
2021/12/15 11:26:03;;;;;;;37.08;14.70;;;7.90;94.70;;;;;;5026531;28;20224;-72
2021/12/15 11:28:39;;;;;;;36.78;14.00;;;7.80;95.00;;;;;;5043175;28;20092;-73
2021/12/15 11:31:14;;;;;;;36.67;14.10;;;7.70;95.10;;;;;;5027679;28;20025;-72
2021/12/15 11:33:45;;;;;;;38.40;14.27;;;7.70;95.10;;;;;;5010025;28;20064;-72
2021/12/15 11:36:31;;;;;;;39.20;13.88;;;7.80;95.10;;;;;;5043826;28;20018;-72
2021/12/15 11:38:58;;;;;;;36.35;14.43;;;7.70;95.30;;;;;;5042080;28;20020;-71
2021/12/15 11:41:39;;;;;;;;;;;7.70;95.20;;;;;;5042716;28;20024;-72
2021/12/15 11:44:27;;;;;;;31.80;12.55;;;7.70;95.00;;;;;;5023073;28;19913;-75
2021/12/15 11:47:00;;;;;;;34.33;13.18;;;7.80;94.80;;;;;;5028428;28;20021;-71
2021/12/15 11:49:29;;;;;;;27.35;11.98;;;7.80;94.60;;;;;;5022906;28;20032;-73
2021/12/15 11:52:06;;;;;;;30.17;12.32;;;7.70;95.00;;;;;;5011877;28;20032;-71
2021/12/15 11:54:37;;;;;;;37.53;13.83;;;7.60;95.30;;;;;;5033499;28;20018;-71
2021/12/15 11:57:15;;;;;;;30.13;13.43;;;7.60;95.40;;;;;;5031617;28;20014;-72
2021/12/15 11:59:44;;;;;;;31.10;12.80;;;7.60;95.80;;;;;;5032861;28;20017;-71
2021/12/15 12:02:20;;;;;;;30.65;12.43;;;7.50;95.30;;;;;;5032846;28;20025;-71
2021/12/15 12:04:55;;;;;;;29.38;11.98;;;7.50;95.40;;;;;;5032598;28;20031;-71
2021/12/15 12:07:33;;;;;;;27.88;11.88;;;7.60;95.10;;;;;;5053448;28;20358;-72
2021/12/15 12:10:17;;;;;;;34.30;12.00;;;7.50;95.40;;;;;;5032608;28;20084;-72
2021/12/15 12:12:55;;;;;;;29.05;11.40;;;7.50;95.50;;;;;;5041835;28;20063;-72
2021/12/15 12:15:25;;;;;;;28.13;11.68;;;7.50;95.40;;;;;;5040697;28;20033;-71
2021/12/15 12:17:54;;;;;;;27.55;11.80;;;7.50;95.20;;;;;;5024961;28;20215;-70
2021/12/15 12:20:33;;;;;;;24.77;12.10;;;7.50;95.30;;;;;;5041133;28;20362;-71
2021/12/15 12:23:04;;;;;;;29.60;11.85;;;7.50;95.30;;;;;;5025381;28;20343;-71
2021/12/15 12:25:36;;;;;;;26.05;10.90;;;7.50;95.30;;;;;;5041551;28;20104;-71
2021/12/15 12:28:02;;;;;;;32.45;13.27;;;7.50;95.20;;;;;;5025591;28;20025;-71
2021/12/15 12:30:37;;;;;;;30.95;12.10;;;7.50;95.40;;;;;;5040916;28;20034;-71
2021/12/15 12:33:08;;;;;;;26.38;12.00;;;7.50;95.50;;;;;;5041400;28;20021;-71
2021/12/15 12:35:35;;;;;;;24.00;11.98;;;7.50;95.60;;;;;;5041587;28;20021;-71
2021/12/15 12:38:05;;;;;;;;;;;7.50;95.50;;;;;;5024956;28;20017;-71
2021/12/15 12:40:38;;;;;;;29.63;10.50;;;7.50;95.60;;;;;;5041535;28;20211;-71
2021/12/15 12:43:23;;;;;;;28.45;12.57;;;7.60;95.80;;;;;;5024597;28;20272;-73
2021/12/15 12:46:20;;;;;;;28.48;10.52;;;7.60;95.60;;;;;;5024199;28;20032;-72
2021/12/15 12:59:46;;;;;;;27.55;11.98;;;7.60;94.80;;;;;;5040719;28;20020;-72
2021/12/15 13:04:53;;;;;;;27.40;10.55;;;7.80;94.30;;;;;;5041602;28;20033;-72
2021/12/15 13:07:47;;;;;;;30.40;11.60;;;7.80;94.30;;;;;;5023407;28;20025;-72
2021/12/15 13:10:14;;;;;;;28.92;10.98;;;7.80;94.40;;;;;;5024044;28;20026;-71
2021/12/15 13:12:47;;;;;;;27.80;11.63;;;7.70;94.60;;;;;;5040329;28;20028;-71
2021/12/15 13:15:17;;;;;;;30.95;11.63;;;7.70;95.00;;;;;;5039236;28;20113;-72
2021/12/15 13:18:02;;;;;;;30.48;11.65;;;7.60;95.30;;;;;;5024605;28;20029;-73
2021/12/15 13:20:31;;;;;;;26.55;11.13;;;7.70;95.50;;;;;;5040590;28;20036;-72
2021/12/15 13:23:28;;;;;;;48.28;21.45;;;7.70;95.70;;;;;;5024273;28;20024;-71
2021/12/15 13:31:08;;;;;;;24.45;10.95;;;7.70;95.30;;;;;;5041549;28;20037;-71
2021/12/15 13:33:38;;;;;;;27.17;10.40;;;7.70;95.10;;;;;;5041232;28;20119;-71
2021/12/15 13:36:29;;;;;;;31.38;11.02;;;7.70;95.00;;;;;;5039638;28;20291;-71
2021/12/15 13:39:02;;;;;;;24.63;11.35;;;7.70;95.10;;;;;;5008561;28;20208;-73
2021/12/15 13:42:00;;;;;;;26.27;10.63;;;7.60;95.00;;;;;;5040175;28;20017;-71
2021/12/15 13:44:39;;;;;;;26.48;10.07;;;7.60;95.10;;;;;;5040134;28;20381;-72
2021/12/15 13:47:07;;;;;;;24.92;10.95;;;7.60;95.20;;;;;;5023674;28;20088;-73
2021/12/15 13:49:55;;;;;;;23.02;10.63;;;7.70;95.30;;;;;;5021419;28;20022;-72
2021/12/15 13:52:59;;;;;;;24.23;10.27;;;7.70;94.90;;;;;;5004242;28;20021;-72
2021/12/15 13:55:36;;;;;;;24.95;11.18;;;7.70;94.70;;;;;;5007881;28;20280;-71
2021/12/15 13:58:08;;;;;;;;;;;7.70;94.60;;;;;;5004542;28;20026;-73
2021/12/15 14:00:56;;;;;;;26.45;9.65;;;7.80;94.50;;;;;;5021479;28;19912;-72
2021/12/15 14:03:30;;;;;;;29.70;12.13;;;7.70;94.40;;;;;;5021453;28;20041;-72
2021/12/15 14:06:16;;;;;;;23.58;10.70;;;7.60;94.90;;;;;;5024391;28;20026;-72
2021/12/15 14:08:45;;;;;;;23.98;10.23;;;7.60;95.10;;;;;;5023646;28;20093;-71
2021/12/15 14:11:42;;;;;;;26.58;11.43;;;7.70;95.00;;;;;;5023562;28;20021;-72
2021/12/15 14:14:21;;;;;;;29.60;11.90;;;7.60;94.90;;;;;;5023193;28;20033;-71
2021/12/15 14:16:54;;;;;;;25.85;11.30;;;7.50;95.10;;;;;;5008921;28;20093;-72
2021/12/15 14:19:33;;;;;;;27.73;10.65;;;7.60;95.20;;;;;;5025560;28;20037;-72
2021/12/15 14:22:03;;;;;;;28.25;11.07;;;7.70;94.70;;;;;;5027485;28;20021;-72
2021/12/15 14:24:28;;;;;;;29.20;12.15;;;7.70;94.70;;;;;;5059531;28;20021;-71
2021/12/15 14:26:54;;;;;;;29.40;11.70;;;7.60;94.80;;;;;;5062178;23;20361;-69
2021/12/15 14:29:23;;;;;;;30.07;12.20;;;7.60;95.10;;;;;;5017517;28;20077;-69